Time;durP1;ratioP1;P1;durP2;ratioP2;P2;SDS_P1;SDS_P2;PMS_P1;PMS_P2;Temp;Humidity;BMP_temperature;BMP_pressure;BME280_temperature;BME280_humidity;BME280_pressure;Samples;Min_cycle;Max_cycle;Signal;HPM_P1;HPM_P2
2022/10/08 00:01:30;;;;;;;12.03;10.90;;;16.20;26.40;;;;;;5041749;28;20466;-83
2022/10/08 00:03:58;;;;;;;12.00;10.67;;;16.10;1.00;;;;;;5042798;28;20462;-84
2022/10/08 00:06:28;;;;;;;12.27;11.00;;;16.10;1.00;;;;;;5035902;28;21009;-84
2022/10/08 00:09:01;;;;;;;10.70;9.80;;;16.10;1.00;;;;;;5041518;28;20492;-82
2022/10/08 00:11:31;;;;;;;13.53;11.33;;;16.00;99.90;;;;;;5043982;28;20447;-82
2022/10/08 00:14:00;;;;;;;11.63;10.43;;;16.00;1.00;;;;;;5049393;28;20462;-82
2022/10/08 00:16:31;;;;;;;12.77;11.37;;;15.90;1.00;;;;;;5043621;28;20465;-82
2022/10/08 00:19:02;;;;;;;13.27;10.60;;;15.90;99.90;;;;;;5039929;28;21126;-82
2022/10/08 00:21:33;;;;;;;13.73;11.50;;;15.80;1.00;;;;;;5038514;28;21044;-83
2022/10/08 00:24:04;;;;;;;12.30;11.20;;;15.90;14.80;;;;;;5047564;28;20453;-82
2022/10/08 00:26:34;;;;;;;10.20;9.40;;;16.00;1.00;;;;;;5047190;28;20982;-82
2022/10/08 00:29:10;;;;;;;10.87;9.90;;;16.10;99.90;;;;;;5045328;28;21264;-82
2022/10/08 00:31:41;;;;;;;10.63;9.60;;;16.20;99.90;;;;;;5051350;28;20451;-82
2022/10/08 00:34:11;;;;;;;11.07;9.93;;;16.30;1.00;;;;;;5056187;28;20456;-83
2022/10/08 00:36:40;;;;;;;10.70;9.37;;;16.20;99.90;;;;;;5048450;28;21624;-82
2022/10/08 00:39:12;;;;;;;10.00;9.10;;;16.20;1.00;;;;;;5046503;28;20783;-82
2022/10/08 00:41:40;;;;;;;10.27;9.33;;;16.20;99.90;;;;;;5048572;28;20449;-83
2022/10/08 00:44:46;;;;;;;11.10;8.80;;;16.20;99.90;;;;;;5057267;28;20515;-84
2022/10/08 00:47:18;;;;;;;10.00;9.03;;;16.20;1.00;;;;;;5054614;28;20954;-84
2022/10/08 00:49:48;;;;;;;12.37;9.40;;;16.20;1.00;;;;;;5050251;28;20459;-83
2022/10/08 00:52:17;;;;;;;12.43;10.20;;;16.20;1.00;;;;;;5048236;28;20454;-84
2022/10/08 00:54:48;;;;;;;14.67;8.17;;;16.10;95.10;;;;;;5050369;28;20496;-84
2022/10/08 00:57:17;;;;;;;8.77;7.80;;;16.10;99.90;;;;;;5053624;28;20496;-83
2022/10/08 00:59:45;;;;;;;12.33;8.33;;;16.10;99.90;;;;;;5051621;28;20594;-83
2022/10/08 01:02:14;;;;;;;9.50;8.70;;;16.00;99.90;;;;;;5047843;28;20858;-84
2022/10/08 01:04:43;;;;;;;10.83;9.10;;;16.10;1.00;;;;;;5045977;28;20455;-83
2022/10/08 01:07:18;;;;;;;10.93;9.83;;;16.00;1.00;;;;;;5053830;28;20475;-83
2022/10/08 01:09:55;;;;;;;11.40;9.77;;;16.10;1.00;;;;;;5046852;28;20446;-84
2022/10/08 01:12:33;;;;;;;8.70;7.90;;;16.10;1.00;;;;;;5051216;28;20483;-83
2022/10/08 01:15:07;;;;;;;9.00;8.27;;;16.40;1.00;;;;;;5053571;28;20462;-82
2022/10/08 01:17:46;;;;;;;10.03;9.13;;;16.40;1.00;;;;;;5051083;28;20496;-83
2022/10/08 01:20:44;;;;;;;9.90;8.90;;;16.30;1.00;;;;;;5055137;28;21296;-83
2022/10/08 01:23:29;;;;;;;8.73;8.13;;;16.40;1.00;;;;;;5045831;28;20461;-83
2022/10/08 01:26:08;;;;;;;9.33;8.53;;;16.40;1.00;;;;;;5052713;28;20454;-82
2022/10/08 01:28:42;;;;;;;9.30;8.20;;;16.40;1.00;;;;;;5045795;28;20475;-83
2022/10/08 01:31:17;;;;;;;9.90;8.90;;;16.30;99.90;;;;;;5046338;28;20462;-81
2022/10/08 01:33:50;;;;;;;9.00;8.27;;;16.30;1.00;;;;;;5048568;28;20465;-82
2022/10/08 01:36:20;;;;;;;9.67;8.77;;;16.30;23.40;;;;;;5049863;28;21182;-81
2022/10/08 01:38:53;;;;;;;8.40;7.70;;;16.30;99.90;;;;;;5052054;28;20479;-82
2022/10/08 01:41:24;;;;;;;8.50;7.90;;;16.30;99.90;;;;;;5043567;28;21107;-81
2022/10/08 01:44:01;;;;;;;9.43;8.50;;;16.30;1.00;;;;;;5044582;28;20498;-81
2022/10/08 01:46:31;;;;;;;9.10;8.20;;;16.30;1.00;;;;;;5041882;28;20545;-81
2022/10/08 01:49:06;;;;;;;9.43;8.53;;;16.30;99.90;;;;;;5047893;28;20637;-82
2022/10/08 01:51:39;;;;;;;10.40;9.43;;;16.40;99.90;;;;;;5048238;28;20487;-82
2022/10/08 01:54:10;;;;;;;11.83;9.70;;;16.30;99.90;;;;;;5050395;28;21045;-81
2022/10/08 01:56:41;;;;;;;9.77;8.87;;;16.30;1.00;;;;;;5051206;28;20508;-81
2022/10/08 01:59:15;;;;;;;9.43;8.57;;;16.30;1.00;;;;;;5045120;28;20902;-82
2022/10/08 02:01:52;;;;;;;8.40;7.70;;;16.20;99.90;;;;;;5044576;28;20480;-81
2022/10/08 02:04:33;;;;;;;9.10;8.20;;;16.10;99.90;;;;;;5038732;28;20454;-80
2022/10/08 02:07:06;;;;;;;9.43;8.73;;;16.20;94.10;;;;;;5045697;28;20490;-82
2022/10/08 02:09:38;;;;;;;9.27;8.53;;;16.20;17.10;;;;;;5043661;28;20492;-81
2022/10/08 02:12:08;;;;;;;10.03;9.13;;;16.30;1.00;;;;;;5047503;28;20490;-81
2022/10/08 02:14:40;;;;;;;9.07;8.23;;;16.20;1.00;;;;;;5049235;28;20466;-82
2022/10/08 02:17:20;;;;;;;8.30;7.60;;;16.20;50.20;;;;;;5035936;28;20501;-82
2022/10/08 02:19:53;;;;;;;8.27;7.77;;;16.20;99.90;;;;;;5041737;28;20515;-82
2022/10/08 02:22:26;;;;;;;10.40;8.60;;;16.30;1.00;;;;;;5043478;28;20478;-83
2022/10/08 02:25:00;;;;;;;8.57;7.87;;;16.20;99.90;;;;;;5049346;28;20453;-83
2022/10/08 02:27:42;;;;;;;9.57;8.10;;;16.20;99.90;;;;;;5053766;28;21000;-83
2022/10/08 02:30:13;;;;;;;8.27;7.57;;;16.20;99.90;;;;;;5032777;28;20451;-83
2022/10/08 02:32:49;;;;;;;12.40;8.10;;;16.20;99.90;;;;;;5040283;28;22487;-82
2022/10/08 02:35:24;;;;;;;8.30;7.47;;;16.30;1.00;;;;;;5046277;28;20456;-82
2022/10/08 02:37:57;;;;;;;9.10;8.27;;;16.30;99.90;;;;;;5040423;28;20472;-82
2022/10/08 02:40:28;;;;;;;11.20;9.00;;;16.10;99.90;;;;;;5044789;28;20484;-83
2022/10/08 02:43:01;;;;;;;8.60;7.70;;;16.20;99.90;;;;;;5046531;28;20529;-82
2022/10/08 02:45:36;;;;;;;8.73;7.90;;;16.20;1.00;;;;;;5060117;28;20466;-82
2022/10/08 02:48:08;;;;;;;8.63;7.40;;;16.20;1.00;;;;;;5046611;28;20505;-81
2022/10/08 02:50:40;;;;;;;8.50;7.87;;;16.10;1.00;;;;;;5047962;28;20564;-81
2022/10/08 02:53:13;;;;;;;8.83;7.93;;;16.20;99.90;;;;;;5046757;28;20607;-82
2022/10/08 02:55:49;;;;;;;7.50;6.80;;;16.20;99.90;;;;;;5044692;28;20462;-82
2022/10/08 02:58:17;;;;;;;10.23;7.73;;;16.20;1.00;;;;;;5042727;28;21051;-83
2022/10/08 03:00:51;;;;;;;10.87;8.07;;;16.30;1.00;;;;;;5044812;28;20530;-82
2022/10/08 03:03:26;;;;;;;8.70;7.83;;;16.30;1.00;;;;;;5044034;28;20470;-82
2022/10/08 03:05:56;;;;;;;9.17;7.97;;;16.40;1.00;;;;;;5043298;28;20489;-82
2022/10/08 03:08:24;;;;;;;7.10;6.50;;;16.30;99.90;;;;;;5047823;28;20577;-83
2022/10/08 03:10:53;;;;;;;11.67;7.67;;;16.10;1.00;;;;;;5043694;28;20503;-83
2022/10/08 03:13:22;;;;;;;8.00;7.40;;;16.10;1.00;;;;;;5049653;28;20481;-83
2022/10/08 03:15:53;;;;;;;9.50;7.20;;;16.00;99.90;;;;;;5044243;28;20474;-85
2022/10/08 03:18:24;;;;;;;9.87;7.90;;;16.10;99.90;;;;;;5047985;28;21034;-81
2022/10/08 03:20:54;;;;;;;8.40;7.77;;;15.90;46.30;;;;;;5039716;28;20599;-81
2022/10/08 03:23:23;;;;;;;8.30;7.60;;;15.90;67.80;;;;;;5047599;28;20481;-82
2022/10/08 03:25:51;;;;;;;8.20;7.27;;;15.80;99.90;;;;;;5043334;28;20951;-81
2022/10/08 03:28:19;;;;;;;8.47;7.57;;;15.70;1.00;;;;;;5043687;28;20768;-82
2022/10/08 03:30:47;;;;;;;7.30;6.70;;;15.70;42.60;;;;;;5039783;28;20826;-82
2022/10/08 03:33:17;;;;;;;9.10;7.13;;;15.70;1.00;;;;;;5047080;28;20477;-82
2022/10/08 03:35:45;;;;;;;9.33;6.53;;;15.60;77.20;;;;;;5042930;28;20491;-83
2022/10/08 03:38:15;;;;;;;7.47;6.90;;;15.70;1.00;;;;;;5041886;28;20482;-82
2022/10/08 03:40:44;;;;;;;7.37;6.63;;;15.60;99.90;;;;;;5043483;28;20488;-82
2022/10/08 03:43:12;;;;;;;7.33;6.63;;;15.50;99.90;;;;;;5042517;28;20529;-81
2022/10/08 03:45:48;;;;;;;8.03;6.90;;;15.50;99.90;;;;;;5043648;28;20504;-82
2022/10/08 03:48:18;;;;;;;7.63;7.10;;;15.50;99.90;;;;;;5043780;28;20476;-83
2022/10/08 03:50:53;;;;;;;7.03;6.33;;;15.50;99.90;;;;;;5045911;28;20495;-81
2022/10/08 03:53:21;;;;;;;7.20;6.60;;;15.40;1.00;;;;;;5047179;28;20458;-83
2022/10/08 03:55:50;;;;;;;10.70;6.30;;;15.40;1.00;;;;;;5046963;28;20497;-83
2022/10/08 03:58:18;;;;;;;15.00;7.97;;;15.40;79.20;;;;;;5040449;28;20564;-82
2022/10/08 04:00:56;;;;;;;8.67;7.87;;;15.40;99.90;;;;;;5043420;28;21004;-82
2022/10/08 04:03:26;;;;;;;7.77;7.10;;;15.50;1.00;;;;;;5049339;28;20519;-82
2022/10/08 04:05:55;;;;;;;7.93;7.13;;;15.30;1.00;;;;;;5054383;28;20491;-82
2022/10/08 04:08:23;;;;;;;6.90;6.37;;;15.30;1.00;;;;;;5058044;28;20568;-83
2022/10/08 04:10:51;;;;;;;8.77;6.90;;;15.40;99.90;;;;;;5051343;28;20456;-81
2022/10/08 04:13:20;;;;;;;10.70;7.40;;;15.40;99.90;;;;;;5046014;28;20553;-82
2022/10/08 04:15:49;;;;;;;8.60;7.70;;;15.40;1.00;;;;;;5046193;28;20567;-81
2022/10/08 04:18:17;;;;;;;14.50;7.93;;;15.40;99.90;;;;;;5049512;28;20557;-81
2022/10/08 04:20:47;;;;;;;10.87;7.53;;;15.40;99.90;;;;;;5048207;28;20860;-80
2022/10/08 04:23:15;;;;;;;8.47;7.57;;;15.40;99.90;;;;;;5059337;28;20475;-81
2022/10/08 04:25:49;;;;;;;8.50;7.77;;;15.40;1.00;;;;;;5047440;28;20464;-81
2022/10/08 04:28:18;;;;;;;7.80;7.10;;;15.40;99.90;;;;;;5052521;28;20891;-83
2022/10/08 04:30:55;;;;;;;8.83;8.03;;;15.40;1.00;;;;;;5044001;28;20459;-82
2022/10/08 04:33:24;;;;;;;8.67;7.80;;;15.40;1.00;;;;;;5043657;28;20461;-82
2022/10/08 04:35:54;;;;;;;8.67;7.87;;;15.30;99.90;;;;;;5044464;28;20465;-83
2022/10/08 04:38:27;;;;;;;9.37;8.57;;;15.30;1.00;;;;;;5050507;28;20476;-83
2022/10/08 04:41:02;;;;;;;10.30;9.20;;;15.30;1.00;;;;;;5046810;28;20477;-82
2022/10/08 04:43:30;;;;;;;8.13;7.03;;;15.30;99.90;;;;;;5055822;28;20509;-81
2022/10/08 04:45:59;;;;;;;8.40;7.70;;;15.30;99.90;;;;;;5048720;28;20521;-82
2022/10/08 04:48:27;;;;;;;8.30;7.60;;;15.40;1.00;;;;;;5046643;28;20468;-82
2022/10/08 04:50:58;;;;;;;8.80;8.00;;;15.40;99.90;;;;;;5046282;28;20453;-84
2022/10/08 04:53:26;;;;;;;9.20;8.23;;;15.40;99.90;;;;;;5049134;28;20544;-83
2022/10/08 04:55:55;;;;;;;9.30;8.37;;;15.30;99.90;;;;;;5046870;28;20712;-83
2022/10/08 04:58:25;;;;;;;8.67;7.50;;;15.40;1.00;;;;;;5046513;28;20494;-82
2022/10/08 05:00:53;;;;;;;8.33;7.60;;;15.40;99.90;;;;;;5049028;28;20571;-81
2022/10/08 05:03:21;;;;;;;8.90;8.10;;;15.50;99.90;;;;;;5059871;28;20463;-81
2022/10/08 05:05:49;;;;;;;15.53;8.60;;;15.50;99.90;;;;;;5044989;28;21024;-82
2022/10/08 05:08:18;;;;;;;8.83;7.43;;;15.50;99.90;;;;;;5045507;28;20881;-82
2022/10/08 05:10:48;;;;;;;8.93;8.03;;;15.50;99.90;;;;;;5046467;28;20454;-81
2022/10/08 05:13:16;;;;;;;7.80;7.20;;;15.50;1.00;;;;;;5054656;28;20983;-80
2022/10/08 05:15:44;;;;;;;10.60;8.10;;;15.50;1.00;;;;;;5052141;28;20468;-82
2022/10/08 05:18:13;;;;;;;11.57;8.30;;;15.50;30.80;;;;;;5049076;28;20563;-79
2022/10/08 05:20:41;;;;;;;8.80;7.73;;;15.40;93.50;;;;;;5045962;28;20509;-81
2022/10/08 05:23:09;;;;;;;8.57;7.77;;;15.40;99.90;;;;;;5043050;28;20484;-81
2022/10/08 05:25:38;;;;;;;9.43;8.53;;;15.30;99.90;;;;;;5048521;28;20453;-81
2022/10/08 05:28:06;;;;;;;8.37;7.57;;;15.30;99.90;;;;;;5054353;28;20558;-83
2022/10/08 05:30:34;;;;;;;9.17;8.40;;;15.30;99.90;;;;;;5057402;28;20622;-83
2022/10/08 05:33:02;;;;;;;7.83;7.13;;;15.20;99.90;;;;;;5052669;28;20506;-83
2022/10/08 05:35:30;;;;;;;8.87;7.63;;;15.20;99.90;;;;;;5047944;28;20465;-84
2022/10/08 05:37:58;;;;;;;8.83;7.93;;;15.20;1.00;;;;;;5052039;28;20564;-82
2022/10/08 05:40:28;;;;;;;8.23;7.53;;;15.20;1.00;;;;;;5044389;28;20540;-82
2022/10/08 05:42:57;;;;;;;8.67;7.90;;;15.20;99.90;;;;;;5049723;28;20963;-82
2022/10/08 05:45:25;;;;;;;8.37;7.27;;;15.10;99.90;;;;;;5048809;28;20521;-82
2022/10/08 05:47:54;;;;;;;8.90;8.00;;;15.10;99.90;;;;;;5050032;28;20879;-80
2022/10/08 05:50:22;;;;;;;8.87;8.03;;;15.00;99.90;;;;;;5054045;28;20514;-81
2022/10/08 05:52:50;;;;;;;10.67;7.90;;;15.00;1.00;;;;;;5062728;28;20695;-83
2022/10/08 05:55:18;;;;;;;8.73;7.40;;;15.00;99.90;;;;;;5045695;28;20582;-81
2022/10/08 05:57:46;;;;;;;11.70;8.63;;;15.00;99.90;;;;;;5048815;28;20500;-83
2022/10/08 06:00:16;;;;;;;8.20;7.40;;;15.00;99.90;;;;;;5058133;28;20482;-82
2022/10/08 06:02:44;;;;;;;9.53;7.93;;;14.90;99.90;;;;;;5040861;28;20559;-81
2022/10/08 06:05:13;;;;;;;7.57;6.87;;;15.00;18.90;;;;;;5046794;28;20447;-82
2022/10/08 06:07:41;;;;;;;9.03;7.20;;;15.00;22.10;;;;;;5051236;28;20558;-84
2022/10/08 06:10:09;;;;;;;9.00;7.30;;;15.00;99.90;;;;;;5039271;28;20441;-85
2022/10/08 06:12:37;;;;;;;7.03;6.53;;;15.00;99.90;;;;;;5050835;28;20557;-83
2022/10/08 06:15:06;;;;;;;8.77;7.87;;;15.00;99.90;;;;;;5056090;28;20444;-83
2022/10/08 06:17:36;;;;;;;16.57;8.70;;;14.90;1.00;;;;;;5055007;28;20467;-83
2022/10/08 06:20:04;;;;;;;10.90;7.97;;;14.90;99.90;;;;;;5048684;28;20486;-83
2022/10/08 06:22:33;;;;;;;9.50;8.70;;;15.00;99.90;;;;;;5047329;28;20468;-82
2022/10/08 06:25:01;;;;;;;8.80;8.00;;;15.00;17.00;;;;;;5042749;28;20456;-83
2022/10/08 06:27:29;;;;;;;7.43;6.83;;;14.90;99.90;;;;;;5041177;28;20459;-82
2022/10/08 06:29:57;;;;;;;8.17;7.53;;;14.90;99.90;;;;;;5043217;28;20455;-83
2022/10/08 06:32:25;;;;;;;7.73;7.03;;;15.00;1.00;;;;;;5047253;28;20451;-83
2022/10/08 06:34:54;;;;;;;8.20;6.70;;;15.10;5.50;;;;;;5045271;28;20458;-81
2022/10/08 06:37:23;;;;;;;7.90;7.20;;;15.10;1.00;;;;;;5046453;28;20459;-82
2022/10/08 06:39:51;;;;;;;9.47;7.03;;;15.30;99.90;;;;;;5043712;28;20589;-83
2022/10/08 06:42:19;;;;;;;7.60;6.87;;;15.30;99.90;;;;;;5051895;28;20571;-81
2022/10/08 06:44:47;;;;;;;7.97;7.17;;;15.20;99.90;;;;;;5050937;28;20447;-82
2022/10/08 06:47:15;;;;;;;7.37;6.43;;;15.30;99.90;;;;;;5050691;28;20459;-82
2022/10/08 06:49:43;;;;;;;7.10;6.30;;;15.30;1.00;;;;;;5049102;28;20470;-83
2022/10/08 06:52:12;;;;;;;8.37;6.37;;;15.30;99.90;;;;;;5044708;28;20497;-84
2022/10/08 06:54:40;;;;;;;6.20;5.30;;;15.30;99.90;;;;;;5044680;28;20466;-83
2022/10/08 06:57:08;;;;;;;7.27;6.57;;;15.40;1.00;;;;;;5045540;28;20493;-83
2022/10/08 06:59:36;;;;;;;10.20;6.10;;;15.50;99.90;;;;;;5048103;28;20472;-84
2022/10/08 07:02:04;;;;;;;12.00;6.70;;;15.50;99.90;;;;;;5045028;28;20486;-83
2022/10/08 07:04:32;;;;;;;5.83;5.33;;;15.50;1.00;;;;;;5048648;28;20543;-83
2022/10/08 07:07:00;;;;;;;9.10;6.10;;;15.70;99.90;;;;;;5049867;28;20452;-84
2022/10/08 07:09:30;;;;;;;6.80;5.73;;;15.70;70.50;;;;;;5037351;28;20472;-83
2022/10/08 07:11:58;;;;;;;5.97;5.43;;;15.90;1.00;;;;;;5048685;28;20458;-83
2022/10/08 07:14:26;;;;;;;6.53;5.07;;;15.80;1.00;;;;;;5034938;28;20457;-83
2022/10/08 07:16:54;;;;;;;12.03;5.40;;;15.90;99.90;;;;;;5049556;28;20467;-80
2022/10/08 07:19:23;;;;;;;5.57;5.07;;;16.00;99.90;;;;;;5043410;28;20555;-83
2022/10/08 07:21:51;;;;;;;4.43;4.13;;;16.00;1.00;;;;;;5047365;28;20567;-83
2022/10/08 07:24:23;;;;;;;7.37;5.40;;;16.10;1.00;;;;;;5047170;28;20461;-82
2022/10/08 07:26:53;;;;;;;7.73;4.70;;;16.20;99.90;;;;;;5040269;28;20449;-82
2022/10/08 07:29:23;;;;;;;6.93;4.80;;;16.30;99.90;;;;;;5038823;28;20504;-82
2022/10/08 07:31:52;;;;;;;5.77;5.00;;;16.40;99.90;;;;;;5048130;28;20697;-82
2022/10/08 07:34:20;;;;;;;7.67;3.83;;;16.50;99.90;;;;;;5049617;28;20478;-83
2022/10/08 07:36:48;;;;;;;5.40;4.60;;;16.50;99.90;;;;;;5048911;28;20550;-83
2022/10/08 07:39:18;;;;;;;5.00;4.33;;;16.70;99.90;;;;;;5048222;28;20488;-83
2022/10/08 07:41:47;;;;;;;7.00;4.80;;;16.90;99.90;;;;;;5049019;28;20534;-83
2022/10/08 07:44:17;;;;;;;4.70;4.07;;;17.20;1.00;;;;;;5050438;28;20465;-83
2022/10/08 07:46:47;;;;;;;5.20;4.70;;;17.40;1.00;;;;;;5045767;28;20470;-84
2022/10/08 07:49:16;;;;;;;5.67;3.87;;;17.80;1.00;;;;;;5044737;28;20501;-83
2022/10/08 07:51:45;;;;;;;7.37;4.10;;;18.30;1.00;;;;;;5035339;28;20565;-80
2022/10/08 07:54:15;;;;;;;4.77;4.20;;;18.40;1.00;;;;;;5047473;28;20460;-80
2022/10/08 07:56:43;;;;;;;4.73;3.23;;;18.50;1.00;;;;;;5041939;28;20516;-80
2022/10/08 07:59:14;;;;;;;5.53;4.53;;;18.60;1.00;;;;;;5043448;28;20511;-81
2022/10/08 08:01:44;;;;;;;6.33;4.07;;;18.50;1.00;;;;;;5039055;28;21007;-80
2022/10/08 08:04:13;;;;;;;6.40;3.80;;;18.70;1.00;;;;;;5040569;28;20519;-81
2022/10/08 08:06:44;;;;;;;6.83;3.60;;;18.80;99.90;;;;;;5035877;28;20546;-80
2022/10/08 08:09:13;;;;;;;6.17;4.30;;;18.70;99.90;;;;;;5052739;28;20478;-79
2022/10/08 08:11:41;;;;;;;4.90;3.67;;;18.60;99.90;;;;;;5039976;28;20452;-81
2022/10/08 08:14:09;;;;;;;4.97;3.60;;;18.70;99.90;;;;;;5042617;28;20495;-79
2022/10/08 08:16:39;;;;;;;4.90;3.60;;;18.50;99.90;;;;;;5037057;28;20945;-82
2022/10/08 08:19:08;;;;;;;5.97;3.40;;;19.10;99.90;;;;;;5046018;28;20822;-80
2022/10/08 08:21:38;;;;;;;6.23;3.03;;;19.30;99.90;;;;;;5035075;28;20452;-81
2022/10/08 08:24:08;;;;;;;6.90;3.00;;;19.30;99.90;;;;;;5044422;28;20581;-81
2022/10/08 08:26:37;;;;;;;5.93;3.03;;;19.40;99.90;;;;;;5035262;28;20942;-82
2022/10/08 08:29:07;;;;;;;4.10;2.80;;;19.10;99.90;;;;;;5042431;28;20486;-83
2022/10/08 08:31:37;;;;;;;7.00;2.87;;;19.30;99.90;;;;;;5039597;28;20491;-83
2022/10/08 08:34:09;;;;;;;3.00;2.70;;;19.30;99.90;;;;;;5040371;28;20459;-83
2022/10/08 08:36:39;;;;;;;3.43;2.63;;;19.10;99.90;;;;;;5041257;28;20480;-82
2022/10/08 08:39:10;;;;;;;8.07;3.00;;;19.00;99.90;;;;;;5040670;28;20456;-83
2022/10/08 08:41:56;;;;;;;5.13;2.80;;;18.90;99.90;;;;;;5038993;28;20538;-84
2022/10/08 08:44:28;;;;;;;4.03;2.80;;;20.20;99.90;;;;;;5048169;28;20472;-86
2022/10/08 08:47:00;;;;;;;3.70;2.40;;;21.40;99.90;;;;;;5047467;28;21034;-85
2022/10/08 08:49:32;;;;;;;3.53;2.20;;;22.40;99.90;;;;;;5053231;28;20489;-84
2022/10/08 08:52:04;;;;;;;2.33;2.13;;;22.30;99.90;;;;;;5050969;28;20810;-84
2022/10/08 08:54:32;;;;;;;3.63;2.37;;;22.00;99.90;;;;;;5052510;28;20459;-84
2022/10/08 08:57:11;;;;;;;4.30;2.07;;;21.40;99.90;;;;;;5051685;28;20457;-84
2022/10/08 08:59:43;;;;;;;3.83;2.10;;;22.80;99.90;;;;;;5047235;28;21003;-85
2022/10/08 09:02:19;;;;;;;3.13;2.13;;;23.10;99.90;;;;;;5049063;28;20498;-85
2022/10/08 09:04:53;;;;;;;5.47;2.30;;;23.30;99.90;;;;;;5045396;28;20852;-84
2022/10/08 09:07:24;;;;;;;5.47;2.40;;;23.70;99.90;;;;;;5051753;28;20478;-84
2022/10/08 09:09:57;;;;;;;4.33;1.80;;;25.30;99.90;;;;;;5049579;28;20475;-84
2022/10/08 09:12:32;;;;;;;5.13;3.17;;;26.60;99.90;;;;;;5048784;28;20530;-85
2022/10/08 09:15:02;;;;;;;7.20;2.30;;;27.30;99.90;;;;;;5052018;28;20454;-85
2022/10/08 09:17:32;;;;;;;3.90;2.40;;;27.80;99.90;;;;;;5054315;28;20456;-85
2022/10/08 09:20:04;;;;;;;3.50;2.00;;;26.50;99.90;;;;;;5045372;28;20451;-85
2022/10/08 09:22:37;;;;;;;3.70;2.70;;;24.90;99.90;;;;;;5048456;28;20891;-83
2022/10/08 09:25:07;;;;;;;5.60;2.40;;;24.60;99.90;;;;;;5044890;28;20464;-84
2022/10/08 09:27:50;;;;;;;3.17;2.10;;;23.30;99.90;;;;;;5051729;28;20462;-84
2022/10/08 09:30:29;;;;;;;2.40;2.03;;;22.90;99.90;;;;;;5051936;28;20476;-84
2022/10/08 09:32:59;;;;;;;5.07;2.40;;;24.10;99.90;;;;;;5049661;28;20513;-84
2022/10/08 09:35:29;;;;;;;6.20;2.27;;;23.50;99.90;;;;;;5048581;28;20537;-84
2022/10/08 09:37:57;;;;;;;2.77;1.60;;;23.60;99.90;;;;;;5040337;28;20471;-84
2022/10/08 09:40:32;;;;;;;5.03;1.93;;;23.60;99.90;;;;;;5049274;28;20442;-84
2022/10/08 09:43:12;;;;;;;3.43;1.93;;;24.50;99.90;;;;;;5048930;28;20475;-85
2022/10/08 09:45:42;;;;;;;4.10;1.90;;;25.20;99.90;;;;;;5042020;28;20495;-84
2022/10/08 09:48:19;;;;;;;3.70;2.03;;;24.90;99.90;;;;;;5048358;28;20484;-85
2022/10/08 09:50:52;;;;;;;7.60;2.53;;;24.10;99.90;;;;;;5047148;28;20547;-84
2022/10/08 09:53:28;;;;;;;6.50;1.60;;;24.00;99.90;;;;;;5045944;28;20938;-85
2022/10/08 09:55:59;;;;;;;6.90;1.90;;;23.60;99.90;;;;;;5044042;28;20457;-84
2022/10/08 09:58:31;;;;;;;3.33;1.83;;;23.40;99.90;;;;;;5046863;28;20990;-84
2022/10/08 10:01:03;;;;;;;3.60;1.50;;;24.20;99.90;;;;;;5049471;28;21272;-84
2022/10/08 10:03:34;;;;;;;6.50;2.03;;;25.80;99.90;;;;;;5048106;28;20479;-84
2022/10/08 10:06:04;;;;;;;5.60;2.07;;;27.40;99.90;;;;;;5048619;28;20982;-85
2022/10/08 10:08:45;;;;;;;3.83;1.80;;;28.60;99.90;;;;;;5046448;28;20472;-84
2022/10/08 10:11:20;;;;;;;6.40;2.30;;;29.80;99.90;;;;;;5045348;28;20455;-84
2022/10/08 10:13:50;;;;;;;5.33;2.00;;;30.30;99.90;;;;;;5042765;28;20828;-84
2022/10/08 10:16:23;;;;;;;2.63;1.60;;;30.30;99.90;;;;;;5049330;28;20526;-84
2022/10/08 10:18:56;;;;;;;3.40;1.60;;;29.60;99.90;;;;;;5050634;28;20837;-84
2022/10/08 10:21:35;;;;;;;6.33;2.13;;;28.50;99.90;;;;;;5049316;28;21341;-84
2022/10/08 10:24:24;;;;;;;4.53;1.90;;;29.70;99.90;;;;;;5042722;28;20475;-84
2022/10/08 10:26:55;;;;;;;6.50;1.90;;;28.00;99.90;;;;;;5038972;28;20463;-83
2022/10/08 10:29:28;;;;;;;3.30;1.70;;;26.90;99.90;;;;;;5044110;28;20484;-84
2022/10/08 10:32:02;;;;;;;2.90;1.90;;;30.00;99.90;;;;;;5043754;28;20497;-84
2022/10/08 10:34:35;;;;;;;2.37;1.67;;;30.80;99.90;;;;;;5051127;28;20475;-84
2022/10/08 10:37:12;;;;;;;3.53;1.90;;;32.30;99.90;;;;;;5040063;28;20483;-84
2022/10/08 10:39:46;;;;;;;5.80;2.00;;;32.90;99.90;;;;;;5046051;28;20483;-85
2022/10/08 10:42:19;;;;;;;4.50;2.10;;;33.80;99.90;;;;;;5042545;28;20506;-85
2022/10/08 10:44:53;;;;;;;6.97;1.70;;;34.70;99.90;;;;;;5049273;28;21055;-84
2022/10/08 10:47:23;;;;;;;3.60;1.80;;;35.40;99.90;;;;;;5050210;28;20521;-84
2022/10/08 10:49:55;;;;;;;3.70;1.63;;;33.80;99.90;;;;;;5045086;28;20459;-85
2022/10/08 10:52:48;;;;;;;4.17;2.27;;;33.60;99.90;;;;;;5040849;28;20518;-84
2022/10/08 10:55:23;;;;;;;3.20;1.87;;;32.60;99.90;;;;;;5044722;28;20510;-84
2022/10/08 10:58:14;;;;;;;4.23;1.80;;;32.60;99.90;;;;;;5048653;28;20672;-84
2022/10/08 11:00:49;;;;;;;6.07;1.77;;;34.30;99.90;;;;;;5045270;28;20513;-84
2022/10/08 11:03:23;;;;;;;5.60;1.80;;;35.00;99.90;;;;;;5049721;28;20450;-84
2022/10/08 11:06:01;;;;;;;7.13;1.83;;;34.40;99.90;;;;;;5038032;28;20457;-85
2022/10/08 11:08:39;;;;;;;4.10;2.13;;;31.00;99.90;;;;;;5041254;28;20534;-84
2022/10/08 11:11:17;;;;;;;4.10;2.17;;;29.70;99.90;;;;;;5046243;28;20467;-83
2022/10/08 11:13:58;;;;;;;6.90;2.20;;;27.90;99.90;;;;;;5050830;28;20462;-85
2022/10/08 11:16:39;;;;;;;2.93;1.53;;;26.30;99.90;;;;;;5053653;28;20456;-83
2022/10/08 11:19:17;;;;;;;3.77;2.40;;;25.50;99.90;;;;;;5045950;28;20512;-84
2022/10/08 11:21:57;;;;;;;4.87;2.07;;;25.00;99.90;;;;;;5032276;28;20482;-84
2022/10/08 11:24:49;;;;;;;7.03;2.33;;;24.30;99.90;;;;;;5046671;28;21051;-84
2022/10/08 11:27:28;;;;;;;6.20;1.90;;;24.20;99.90;;;;;;5045758;28;20973;-84
2022/10/08 11:30:03;;;;;;;9.07;2.37;;;24.10;99.90;;;;;;5046440;28;20460;-84
2022/10/08 11:32:32;;;;;;;5.70;2.70;;;24.00;99.90;;;;;;5050412;28;20455;-83
2022/10/08 11:35:15;;;;;;;6.30;3.00;;;23.90;99.90;;;;;;5047642;28;20443;-85
2022/10/08 11:37:48;;;;;;;7.93;2.60;;;23.70;99.90;;;;;;5045698;28;20459;-83
2022/10/08 11:40:26;;;;;;;4.00;2.03;;;24.00;99.90;;;;;;5047120;28;20483;-84
2022/10/08 11:43:04;;;;;;;4.07;1.60;;;24.00;99.90;;;;;;5049367;28;21256;-83
2022/10/08 11:45:36;;;;;;;5.80;2.57;;;23.80;99.90;;;;;;5044753;28;20475;-84
2022/10/08 11:48:32;;;;;;;3.03;2.10;;;23.60;99.90;;;;;;5043273;28;20481;-85
2022/10/08 11:51:37;;;;;;;4.07;2.17;;;23.60;99.90;;;;;;5034160;28;20460;-85
2022/10/08 11:54:22;;;;;;;5.37;2.27;;;23.40;99.90;;;;;;5039357;28;20458;-84
2022/10/08 11:57:12;;;;;;;3.20;1.50;;;23.00;99.90;;;;;;5038615;28;20521;-84
2022/10/08 11:59:41;;;;;;;4.90;2.20;;;23.30;99.90;;;;;;5043994;28;20471;-84
2022/10/08 12:02:23;;;;;;;3.37;1.57;;;22.80;99.90;;;;;;5045939;28;20509;-85
2022/10/08 12:04:53;;;;;;;1.93;1.57;;;22.80;99.90;;;;;;5042684;28;20538;-84
2022/10/08 12:07:27;;;;;;;4.80;1.77;;;22.60;99.90;;;;;;5055721;28;20480;-83
2022/10/08 12:10:29;;;;;;;5.13;1.77;;;22.40;99.90;;;;;;5048731;28;20538;-84
2022/10/08 12:13:30;;;;;;;5.33;2.53;;;22.30;99.90;;;;;;5044533;28;20471;-84
2022/10/08 12:16:03;;;;;;;3.73;1.90;;;22.10;99.90;;;;;;5040015;28;20687;-83
2022/10/08 12:18:43;;;;;;;5.43;1.90;;;21.80;99.90;;;;;;5050033;28;20994;-84
2022/10/08 12:21:53;;;;;;;4.60;2.00;;;21.80;99.90;;;;;;5052003;28;20455;-84
2022/10/08 12:24:51;;;;;;;2.57;1.30;;;22.30;99.90;;;;;;5052687;28;20457;-84
2022/10/08 12:27:38;;;;;;;4.63;1.53;;;22.40;99.90;;;;;;5047522;28;20478;-84
2022/10/08 12:30:10;;;;;;;6.07;1.60;;;22.50;99.90;;;;;;5051221;28;20505;-84
2022/10/08 12:32:55;;;;;;;5.03;1.30;;;22.60;99.90;;;;;;5052460;28;20486;-83
2022/10/08 12:35:36;;;;;;;6.00;1.93;;;22.70;99.90;;;;;;5052454;28;20476;-84
2022/10/08 12:38:27;;;;;;;5.73;1.63;;;22.60;99.90;;;;;;5044613;28;20459;-85
2022/10/08 12:41:09;;;;;;;8.33;2.17;;;22.60;99.90;;;;;;5053553;28;20505;-85
2022/10/08 12:43:43;;;;;;;4.37;1.73;;;22.40;99.90;;;;;;5052990;28;20455;-83
2022/10/08 12:46:28;;;;;;;3.67;1.60;;;22.10;99.90;;;;;;5038064;28;20751;-85
2022/10/08 12:49:01;;;;;;;3.00;1.47;;;22.10;99.90;;;;;;5047087;28;20518;-83
2022/10/08 12:51:40;;;;;;;1.60;1.50;;;22.50;99.90;;;;;;5045007;28;20461;-84
2022/10/08 12:54:18;;;;;;;4.27;1.67;;;22.70;99.90;;;;;;5049716;28;20447;-85
2022/10/08 12:56:47;;;;;;;2.53;1.83;;;21.80;99.90;;;;;;5049128;28;20438;-83
2022/10/08 12:59:15;;;;;;;3.80;1.43;;;21.80;99.90;;;;;;5053153;28;20478;-82
2022/10/08 13:01:46;;;;;;;3.40;1.30;;;22.00;99.90;;;;;;5039686;28;20439;-83
2022/10/08 13:04:18;;;;;;;2.40;1.40;;;22.30;99.90;;;;;;5048968;28;20457;-82
2022/10/08 13:06:47;;;;;;;6.20;1.70;;;21.70;99.90;;;;;;5046173;28;20467;-83
2022/10/08 13:09:26;;;;;;;2.60;1.60;;;21.90;99.90;;;;;;5051517;28;20471;-83
2022/10/08 13:11:54;;;;;;;3.30;1.73;;;22.00;99.90;;;;;;5052040;28;20480;-83
2022/10/08 13:14:31;;;;;;;2.83;1.30;;;22.30;99.90;;;;;;5041173;28;20440;-83
2022/10/08 13:17:01;;;;;;;2.63;1.70;;;22.20;99.90;;;;;;5050180;28;20470;-84